sensor_id;sensor_type;location;lat;lon;timestamp;P1;durP1;ratioP1;P2;durP2;ratioP2
39924;SDS011;25592;49.986;11.618;2023-04-16T00:00:23;10.93;;;6.32;;
39924;SDS011;25592;49.986;11.618;2023-04-16T00:03:09;9.85;;;6.85;;
39924;SDS011;25592;49.986;11.618;2023-04-16T00:05:54;12.82;;;7.47;;
39924;SDS011;25592;49.986;11.618;2023-04-16T00:08:40;13.27;;;7.65;;
39924;SDS011;25592;49.986;11.618;2023-04-16T00:11:27;17.63;;;8.50;;
39924;SDS011;25592;49.986;11.618;2023-04-16T00:14:12;12.23;;;7.10;;
39924;SDS011;25592;49.986;11.618;2023-04-16T00:16:58;10.10;;;6.10;;
39924;SDS011;25592;49.986;11.618;2023-04-16T00:19:43;9.80;;;6.45;;
39924;SDS011;25592;49.986;11.618;2023-04-16T00:22:28;9.63;;;5.38;;
39924;SDS011;25592;49.986;11.618;2023-04-16T00:25:14;8.88;;;6.03;;
39924;SDS011;25592;49.986;11.618;2023-04-16T00:27:59;7.88;;;5.18;;
39924;SDS011;25592;49.986;11.618;2023-04-16T00:30:45;9.13;;;6.00;;
39924;SDS011;25592;49.986;11.618;2023-04-16T00:33:30;9.20;;;5.72;;
39924;SDS011;25592;49.986;11.618;2023-04-16T00:36:15;9.07;;;5.68;;
39924;SDS011;25592;49.986;11.618;2023-04-16T00:39:01;9.80;;;6.35;;
39924;SDS011;25592;49.986;11.618;2023-04-16T00:41:46;9.40;;;5.93;;
39924;SDS011;25592;49.986;11.618;2023-04-16T00:44:32;8.88;;;5.90;;
39924;SDS011;25592;49.986;11.618;2023-04-16T00:47:21;8.90;;;6.13;;
39924;SDS011;25592;49.986;11.618;2023-04-16T00:50:06;8.32;;;5.25;;
39924;SDS011;25592;49.986;11.618;2023-04-16T00:52:51;9.32;;;6.03;;
39924;SDS011;25592;49.986;11.618;2023-04-16T00:55:37;9.70;;;6.15;;
39924;SDS011;25592;49.986;11.618;2023-04-16T00:58:24;9.73;;;6.03;;
39924;SDS011;25592;49.986;11.618;2023-04-16T01:01:09;9.88;;;6.43;;
39924;SDS011;25592;49.986;11.618;2023-04-16T01:03:55;9.30;;;5.72;;
39924;SDS011;25592;49.986;11.618;2023-04-16T01:06:40;10.00;;;6.03;;
39924;SDS011;25592;49.986;11.618;2023-04-16T01:09:26;8.63;;;5.90;;
39924;SDS011;25592;49.986;11.618;2023-04-16T01:12:12;10.73;;;6.50;;
39924;SDS011;25592;49.986;11.618;2023-04-16T01:14:58;9.80;;;5.90;;
39924;SDS011;25592;49.986;11.618;2023-04-16T01:17:46;8.93;;;5.03;;
39924;SDS011;25592;49.986;11.618;2023-04-16T01:20:34;9.18;;;6.00;;
39924;SDS011;25592;49.986;11.618;2023-04-16T01:23:20;9.05;;;5.65;;
39924;SDS011;25592;49.986;11.618;2023-04-16T01:26:06;9.45;;;6.15;;
39924;SDS011;25592;49.986;11.618;2023-04-16T01:28:51;8.30;;;5.30;;
39924;SDS011;25592;49.986;11.618;2023-04-16T01:31:37;9.27;;;6.00;;
39924;SDS011;25592;49.986;11.618;2023-04-16T01:34:22;9.77;;;6.28;;
39924;SDS011;25592;49.986;11.618;2023-04-16T01:37:07;9.63;;;6.50;;
39924;SDS011;25592;49.986;11.618;2023-04-16T01:39:53;9.38;;;6.00;;
39924;SDS011;25592;49.986;11.618;2023-04-16T01:42:38;10.55;;;5.28;;
39924;SDS011;25592;49.986;11.618;2023-04-16T01:45:24;8.50;;;5.55;;
39924;SDS011;25592;49.986;11.618;2023-04-16T01:48:09;8.88;;;6.03;;
39924;SDS011;25592;49.986;11.618;2023-04-16T01:50:55;9.88;;;5.75;;
39924;SDS011;25592;49.986;11.618;2023-04-16T01:53:40;8.75;;;5.60;;
39924;SDS011;25592;49.986;11.618;2023-04-16T01:56:25;9.07;;;5.57;;
39924;SDS011;25592;49.986;11.618;2023-04-16T01:59:11;11.88;;;6.60;;
39924;SDS011;25592;49.986;11.618;2023-04-16T02:01:58;10.90;;;7.22;;
39924;SDS011;25592;49.986;11.618;2023-04-16T02:07:34;8.63;;;5.75;;
39924;SDS011;25592;49.986;11.618;2023-04-16T02:10:19;9.30;;;5.47;;
39924;SDS011;25592;49.986;11.618;2023-04-16T02:13:05;8.00;;;5.07;;
39924;SDS011;25592;49.986;11.618;2023-04-16T02:15:51;9.50;;;5.93;;
39924;SDS011;25592;49.986;11.618;2023-04-16T02:18:36;9.77;;;5.95;;
39924;SDS011;25592;49.986;11.618;2023-04-16T02:21:21;8.48;;;5.43;;
39924;SDS011;25592;49.986;11.618;2023-04-16T02:24:07;9.40;;;5.70;;
39924;SDS011;25592;49.986;11.618;2023-04-16T02:26:53;9.50;;;6.07;;
39924;SDS011;25592;49.986;11.618;2023-04-16T02:29:38;8.93;;;5.70;;
39924;SDS011;25592;49.986;11.618;2023-04-16T02:32:24;10.32;;;6.60;;
39924;SDS011;25592;49.986;11.618;2023-04-16T02:35:09;9.48;;;5.68;;
39924;SDS011;25592;49.986;11.618;2023-04-16T02:37:54;11.65;;;6.25;;
39924;SDS011;25592;49.986;11.618;2023-04-16T02:40:40;11.93;;;6.05;;
39924;SDS011;25592;49.986;11.618;2023-04-16T02:43:25;11.70;;;6.78;;
39924;SDS011;25592;49.986;11.618;2023-04-16T02:46:11;7.75;;;5.13;;
39924;SDS011;25592;49.986;11.618;2023-04-16T02:48:56;11.23;;;6.50;;
39924;SDS011;25592;49.986;11.618;2023-04-16T02:51:41;9.40;;;6.28;;
39924;SDS011;25592;49.986;11.618;2023-04-16T02:54:27;10.93;;;6.97;;
39924;SDS011;25592;49.986;11.618;2023-04-16T02:57:12;10.65;;;6.07;;
39924;SDS011;25592;49.986;11.618;2023-04-16T02:59:57;10.77;;;7.03;;
39924;SDS011;25592;49.986;11.618;2023-04-16T03:02:43;8.75;;;5.25;;
39924;SDS011;25592;49.986;11.618;2023-04-16T03:05:28;12.20;;;7.53;;
39924;SDS011;25592;49.986;11.618;2023-04-16T03:08:14;10.80;;;6.55;;
39924;SDS011;25592;49.986;11.618;2023-04-16T03:10:59;10.73;;;6.60;;
39924;SDS011;25592;49.986;11.618;2023-04-16T03:13:45;11.75;;;6.75;;
39924;SDS011;25592;49.986;11.618;2023-04-16T03:16:30;12.35;;;7.43;;
39924;SDS011;25592;49.986;11.618;2023-04-16T03:19:15;11.80;;;6.78;;
39924;SDS011;25592;49.986;11.618;2023-04-16T03:22:00;11.68;;;6.95;;
39924;SDS011;25592;49.986;11.618;2023-04-16T03:24:46;14.15;;;6.80;;
39924;SDS011;25592;49.986;11.618;2023-04-16T03:27:32;12.55;;;6.57;;
39924;SDS011;25592;49.986;11.618;2023-04-16T03:30:17;12.75;;;7.00;;
39924;SDS011;25592;49.986;11.618;2023-04-16T03:33:03;10.05;;;5.95;;
39924;SDS011;25592;49.986;11.618;2023-04-16T03:35:55;10.25;;;6.20;;
39924;SDS011;25592;49.986;11.618;2023-04-16T03:41:26;13.02;;;7.22;;
39924;SDS011;25592;49.986;11.618;2023-04-16T03:44:11;11.30;;;6.18;;
39924;SDS011;25592;49.986;11.618;2023-04-16T03:46:57;11.15;;;6.13;;
39924;SDS011;25592;49.986;11.618;2023-04-16T03:49:42;10.95;;;6.38;;
39924;SDS011;25592;49.986;11.618;2023-04-16T03:52:27;10.80;;;6.07;;
39924;SDS011;25592;49.986;11.618;2023-04-16T03:55:13;11.98;;;7.22;;
39924;SDS011;25592;49.986;11.618;2023-04-16T03:58:02;9.77;;;5.90;;
39924;SDS011;25592;49.986;11.618;2023-04-16T04:00:48;9.05;;;4.88;;
39924;SDS011;25592;49.986;11.618;2023-04-16T04:03:36;8.85;;;4.88;;
39924;SDS011;25592;49.986;11.618;2023-04-16T04:06:22;8.10;;;4.70;;
39924;SDS011;25592;49.986;11.618;2023-04-16T04:09:07;8.43;;;5.35;;
39924;SDS011;25592;49.986;11.618;2023-04-16T04:11:53;8.93;;;4.90;;
39924;SDS011;25592;49.986;11.618;2023-04-16T04:14:39;9.73;;;5.25;;
39924;SDS011;25592;49.986;11.618;2023-04-16T04:17:24;10.45;;;5.32;;
39924;SDS011;25592;49.986;11.618;2023-04-16T04:20:10;7.82;;;4.47;;
39924;SDS011;25592;49.986;11.618;2023-04-16T04:22:56;7.97;;;4.20;;
39924;SDS011;25592;49.986;11.618;2023-04-16T04:25:41;7.82;;;4.18;;
39924;SDS011;25592;49.986;11.618;2023-04-16T04:28:26;8.05;;;4.25;;
39924;SDS011;25592;49.986;11.618;2023-04-16T04:31:12;10.15;;;4.10;;
39924;SDS011;25592;49.986;11.618;2023-04-16T04:33:57;7.97;;;4.68;;
39924;SDS011;25592;49.986;11.618;2023-04-16T04:36:43;8.15;;;4.72;;
39924;SDS011;25592;49.986;11.618;2023-04-16T04:39:28;7.38;;;4.50;;
39924;SDS011;25592;49.986;11.618;2023-04-16T04:42:15;10.07;;;3.58;;
39924;SDS011;25592;49.986;11.618;2023-04-16T04:45:02;8.90;;;4.90;;
39924;SDS011;25592;49.986;11.618;2023-04-16T04:47:48;8.95;;;4.75;;
39924;SDS011;25592;49.986;11.618;2023-04-16T04:50:33;8.43;;;4.72;;
39924;SDS011;25592;49.986;11.618;2023-04-16T04:53:18;10.60;;;5.50;;
39924;SDS011;25592;49.986;11.618;2023-04-16T04:56:04;10.57;;;5.25;;
39924;SDS011;25592;49.986;11.618;2023-04-16T05:01:42;11.40;;;5.07;;
39924;SDS011;25592;49.986;11.618;2023-04-16T05:04:28;9.52;;;5.25;;
39924;SDS011;25592;49.986;11.618;2023-04-16T05:07:14;10.43;;;4.88;;
39924;SDS011;25592;49.986;11.618;2023-04-16T05:09:59;9.77;;;5.35;;
39924;SDS011;25592;49.986;11.618;2023-04-16T05:12:45;10.25;;;5.20;;
39924;SDS011;25592;49.986;11.618;2023-04-16T05:15:32;10.77;;;5.22;;
39924;SDS011;25592;49.986;11.618;2023-04-16T05:18:18;12.32;;;6.50;;
39924;SDS011;25592;49.986;11.618;2023-04-16T05:21:03;12.75;;;6.15;;
39924;SDS011;25592;49.986;11.618;2023-04-16T05:23:49;11.20;;;5.93;;
39924;SDS011;25592;49.986;11.618;2023-04-16T05:26:34;13.25;;;6.28;;
39924;SDS011;25592;49.986;11.618;2023-04-16T05:29:20;14.15;;;6.18;;
39924;SDS011;25592;49.986;11.618;2023-04-16T05:32:05;13.07;;;6.30;;
39924;SDS011;25592;49.986;11.618;2023-04-16T05:34:51;10.77;;;5.22;;
39924;SDS011;25592;49.986;11.618;2023-04-16T05:37:36;12.45;;;5.72;;
39924;SDS011;25592;49.986;11.618;2023-04-16T05:40:22;12.25;;;6.22;;
39924;SDS011;25592;49.986;11.618;2023-04-16T05:43:07;10.27;;;5.22;;
39924;SDS011;25592;49.986;11.618;2023-04-16T05:45:52;11.95;;;5.68;;
39924;SDS011;25592;49.986;11.618;2023-04-16T05:48:37;9.82;;;4.60;;
39924;SDS011;25592;49.986;11.618;2023-04-16T05:51:23;10.65;;;5.03;;
39924;SDS011;25592;49.986;11.618;2023-04-16T05:54:09;11.40;;;5.70;;
39924;SDS011;25592;49.986;11.618;2023-04-16T05:56:55;11.18;;;5.35;;
39924;SDS011;25592;49.986;11.618;2023-04-16T05:59:40;9.93;;;5.28;;
39924;SDS011;25592;49.986;11.618;2023-04-16T06:02:26;10.68;;;6.15;;
39924;SDS011;25592;49.986;11.618;2023-04-16T06:05:11;9.50;;;4.63;;
39924;SDS011;25592;49.986;11.618;2023-04-16T06:07:56;10.07;;;4.93;;
39924;SDS011;25592;49.986;11.618;2023-04-16T06:10:42;11.02;;;5.25;;
39924;SDS011;25592;49.986;11.618;2023-04-16T06:13:29;12.15;;;5.30;;
39924;SDS011;25592;49.986;11.618;2023-04-16T06:16:15;10.93;;;5.32;;
39924;SDS011;25592;49.986;11.618;2023-04-16T06:19:00;10.93;;;5.55;;
39924;SDS011;25592;49.986;11.618;2023-04-16T06:21:46;11.65;;;5.80;;
39924;SDS011;25592;49.986;11.618;2023-04-16T06:24:31;12.60;;;5.72;;
39924;SDS011;25592;49.986;11.618;2023-04-16T06:27:17;13.45;;;5.60;;
39924;SDS011;25592;49.986;11.618;2023-04-16T06:30:09;9.25;;;5.07;;
39924;SDS011;25592;49.986;11.618;2023-04-16T06:32:56;10.02;;;5.78;;
39924;SDS011;25592;49.986;11.618;2023-04-16T06:35:43;10.98;;;6.13;;
39924;SDS011;25592;49.986;11.618;2023-04-16T06:38:28;15.35;;;6.15;;
39924;SDS011;25592;49.986;11.618;2023-04-16T06:41:14;11.07;;;5.45;;
39924;SDS011;25592;49.986;11.618;2023-04-16T06:44:00;12.65;;;6.20;;
39924;SDS011;25592;49.986;11.618;2023-04-16T06:46:49;12.27;;;5.65;;
39924;SDS011;25592;49.986;11.618;2023-04-16T06:49:36;10.77;;;5.95;;
39924;SDS011;25592;49.986;11.618;2023-04-16T06:52:24;13.13;;;6.68;;
39924;SDS011;25592;49.986;11.618;2023-04-16T06:55:09;11.57;;;6.45;;
39924;SDS011;25592;49.986;11.618;2023-04-16T06:57:55;13.15;;;6.90;;
39924;SDS011;25592;49.986;11.618;2023-04-16T07:00:41;12.93;;;6.32;;
39924;SDS011;25592;49.986;11.618;2023-04-16T07:03:26;13.00;;;7.20;;
39924;SDS011;25592;49.986;11.618;2023-04-16T07:06:12;11.40;;;6.78;;
39924;SDS011;25592;49.986;11.618;2023-04-16T07:08:58;13.40;;;7.40;;
39924;SDS011;25592;49.986;11.618;2023-04-16T07:11:43;12.80;;;6.55;;
39924;SDS011;25592;49.986;11.618;2023-04-16T07:14:29;11.32;;;6.32;;
39924;SDS011;25592;49.986;11.618;2023-04-16T07:17:15;11.73;;;6.60;;
39924;SDS011;25592;49.986;11.618;2023-04-16T07:20:00;11.38;;;5.90;;
39924;SDS011;25592;49.986;11.618;2023-04-16T07:22:46;11.55;;;6.55;;
39924;SDS011;25592;49.986;11.618;2023-04-16T07:25:31;14.38;;;6.82;;
39924;SDS011;25592;49.986;11.618;2023-04-16T07:28:17;12.10;;;6.55;;
39924;SDS011;25592;49.986;11.618;2023-04-16T07:31:04;11.48;;;7.25;;
39924;SDS011;25592;49.986;11.618;2023-04-16T07:33:50;11.88;;;6.10;;
39924;SDS011;25592;49.986;11.618;2023-04-16T07:36:36;11.27;;;6.35;;
39924;SDS011;25592;49.986;11.618;2023-04-16T07:39:22;9.63;;;5.82;;
39924;SDS011;25592;49.986;11.618;2023-04-16T07:42:10;9.88;;;5.75;;
39924;SDS011;25592;49.986;11.618;2023-04-16T07:44:57;10.27;;;5.93;;
39924;SDS011;25592;49.986;11.618;2023-04-16T07:47:46;11.63;;;6.63;;
39924;SDS011;25592;49.986;11.618;2023-04-16T07:50:32;11.07;;;5.82;;
39924;SDS011;25592;49.986;11.618;2023-04-16T07:53:17;9.90;;;5.53;;
39924;SDS011;25592;49.986;11.618;2023-04-16T07:56:03;12.77;;;6.60;;
39924;SDS011;25592;49.986;11.618;2023-04-16T07:58:48;9.38;;;5.45;;
39924;SDS011;25592;49.986;11.618;2023-04-16T08:01:33;8.80;;;5.22;;
39924;SDS011;25592;49.986;11.618;2023-04-16T08:04:19;8.70;;;5.10;;
39924;SDS011;25592;49.986;11.618;2023-04-16T08:07:10;8.70;;;5.13;;
39924;SDS011;25592;49.986;11.618;2023-04-16T08:09:55;9.05;;;5.38;;
39924;SDS011;25592;49.986;11.618;2023-04-16T08:12:41;13.15;;;5.28;;
39924;SDS011;25592;49.986;11.618;2023-04-16T08:15:27;10.27;;;6.00;;
39924;SDS011;25592;49.986;11.618;2023-04-16T08:18:12;9.50;;;5.32;;
39924;SDS011;25592;49.986;11.618;2023-04-16T08:20:59;7.25;;;4.50;;
39924;SDS011;25592;49.986;11.618;2023-04-16T08:23:47;7.97;;;5.05;;
39924;SDS011;25592;49.986;11.618;2023-04-16T08:26:33;9.02;;;5.10;;
39924;SDS011;25592;49.986;11.618;2023-04-16T08:29:18;8.73;;;5.03;;
39924;SDS011;25592;49.986;11.618;2023-04-16T08:32:04;8.63;;;4.70;;
39924;SDS011;25592;49.986;11.618;2023-04-16T08:34:53;8.57;;;5.05;;
39924;SDS011;25592;49.986;11.618;2023-04-16T08:37:39;8.93;;;5.35;;
39924;SDS011;25592;49.986;11.618;2023-04-16T08:40:25;12.27;;;6.15;;
39924;SDS011;25592;49.986;11.618;2023-04-16T08:43:14;7.82;;;4.40;;
39924;SDS011;25592;49.986;11.618;2023-04-16T08:46:02;9.60;;;5.70;;
39924;SDS011;25592;49.986;11.618;2023-04-16T08:48:50;11.45;;;6.03;;
39924;SDS011;25592;49.986;11.618;2023-04-16T08:51:38;10.25;;;6.35;;
39924;SDS011;25592;49.986;11.618;2023-04-16T08:54:33;9.35;;;5.85;;
39924;SDS011;25592;49.986;11.618;2023-04-16T08:57:29;7.47;;;4.65;;
39924;SDS011;25592;49.986;11.618;2023-04-16T09:00:38;7.80;;;5.13;;
39924;SDS011;25592;49.986;11.618;2023-04-16T09:03:24;8.32;;;5.30;;
39924;SDS011;25592;49.986;11.618;2023-04-16T09:06:11;9.02;;;5.22;;
39924;SDS011;25592;49.986;11.618;2023-04-16T09:08:58;8.93;;;5.57;;
39924;SDS011;25592;49.986;11.618;2023-04-16T09:11:44;9.77;;;5.45;;
39924;SDS011;25592;49.986;11.618;2023-04-16T09:14:30;8.77;;;5.40;;
39924;SDS011;25592;49.986;11.618;2023-04-16T09:17:19;8.88;;;5.45;;
39924;SDS011;25592;49.986;11.618;2023-04-16T09:20:05;8.32;;;5.25;;
39924;SDS011;25592;49.986;11.618;2023-04-16T09:22:52;7.72;;;4.75;;
39924;SDS011;25592;49.986;11.618;2023-04-16T09:25:39;8.15;;;4.60;;
39924;SDS011;25592;49.986;11.618;2023-04-16T09:28:37;6.55;;;4.18;;
39924;SDS011;25592;49.986;11.618;2023-04-16T09:31:23;7.35;;;4.00;;
39924;SDS011;25592;49.986;11.618;2023-04-16T09:34:09;5.82;;;3.72;;
39924;SDS011;25592;49.986;11.618;2023-04-16T09:36:54;6.75;;;3.97;;
39924;SDS011;25592;49.986;11.618;2023-04-16T09:39:41;11.48;;;6.18;;
39924;SDS011;25592;49.986;11.618;2023-04-16T09:42:27;9.43;;;5.25;;
39924;SDS011;25592;49.986;11.618;2023-04-16T09:45:17;7.55;;;3.78;;
39924;SDS011;25592;49.986;11.618;2023-04-16T09:48:02;6.20;;;3.67;;
39924;SDS011;25592;49.986;11.618;2023-04-16T09:50:51;5.18;;;3.60;;
39924;SDS011;25592;49.986;11.618;2023-04-16T09:53:37;4.60;;;2.97;;
39924;SDS011;25592;49.986;11.618;2023-04-16T09:56:23;9.07;;;3.05;;
39924;SDS011;25592;49.986;11.618;2023-04-16T09:59:19;6.70;;;3.55;;
39924;SDS011;25592;49.986;11.618;2023-04-16T10:02:06;8.88;;;2.50;;
39924;SDS011;25592;49.986;11.618;2023-04-16T10:05:02;5.60;;;3.30;;
39924;SDS011;25592;49.986;11.618;2023-04-16T10:07:48;6.68;;;3.42;;
39924;SDS011;25592;49.986;11.618;2023-04-16T10:10:33;4.13;;;2.45;;
39924;SDS011;25592;49.986;11.618;2023-04-16T10:13:19;5.07;;;3.10;;
39924;SDS011;25592;49.986;11.618;2023-04-16T10:16:05;4.68;;;2.92;;
39924;SDS011;25592;49.986;11.618;2023-04-16T10:18:52;5.00;;;2.60;;
39924;SDS011;25592;49.986;11.618;2023-04-16T10:21:40;5.22;;;3.05;;
39924;SDS011;25592;49.986;11.618;2023-04-16T10:24:26;4.13;;;2.30;;
39924;SDS011;25592;49.986;11.618;2023-04-16T10:27:12;4.47;;;2.60;;
39924;SDS011;25592;49.986;11.618;2023-04-16T10:29:58;6.45;;;2.80;;
39924;SDS011;25592;49.986;11.618;2023-04-16T10:32:44;5.18;;;2.75;;
39924;SDS011;25592;49.986;11.618;2023-04-16T10:35:30;4.28;;;2.53;;
39924;SDS011;25592;49.986;11.618;2023-04-16T10:38:23;4.13;;;2.53;;
39924;SDS011;25592;49.986;11.618;2023-04-16T10:41:11;4.78;;;2.42;;
39924;SDS011;25592;49.986;11.618;2023-04-16T10:44:07;3.88;;;2.33;;
39924;SDS011;25592;49.986;11.618;2023-04-16T10:46:54;4.38;;;2.40;;
39924;SDS011;25592;49.986;11.618;2023-04-16T10:49:40;4.45;;;2.78;;
39924;SDS011;25592;49.986;11.618;2023-04-16T10:52:26;5.85;;;2.97;;
39924;SDS011;25592;49.986;11.618;2023-04-16T10:55:16;6.13;;;2.35;;
39924;SDS011;25592;49.986;11.618;2023-04-16T10:58:01;5.53;;;2.80;;
39924;SDS011;25592;49.986;11.618;2023-04-16T11:01:10;4.85;;;2.55;;
39924;SDS011;25592;49.986;11.618;2023-04-16T11:03:58;13.93;;;10.55;;
39924;SDS011;25592;49.986;11.618;2023-04-16T11:10:06;5.80;;;2.95;;
39924;SDS011;25592;49.986;11.618;2023-04-16T11:12:56;4.78;;;3.10;;
39924;SDS011;25592;49.986;11.618;2023-04-16T11:15:42;3.60;;;2.30;;
39924;SDS011;25592;49.986;11.618;2023-04-16T11:18:27;4.53;;;2.20;;
39924;SDS011;25592;49.986;11.618;2023-04-16T11:21:13;5.90;;;2.28;;
39924;SDS011;25592;49.986;11.618;2023-04-16T11:23:58;5.38;;;2.38;;
39924;SDS011;25592;49.986;11.618;2023-04-16T11:26:43;3.38;;;1.98;;
39924;SDS011;25592;49.986;11.618;2023-04-16T11:29:29;4.30;;;2.28;;
39924;SDS011;25592;49.986;11.618;2023-04-16T11:32:21;5.47;;;2.60;;
39924;SDS011;25592;49.986;11.618;2023-04-16T11:35:13;4.68;;;2.25;;
39924;SDS011;25592;49.986;11.618;2023-04-16T11:38:04;3.78;;;2.25;;
39924;SDS011;25592;49.986;11.618;2023-04-16T11:40:55;7.13;;;2.47;;
39924;SDS011;25592;49.986;11.618;2023-04-16T11:43:41;3.00;;;1.88;;
39924;SDS011;25592;49.986;11.618;2023-04-16T11:46:36;3.22;;;2.00;;
39924;SDS011;25592;49.986;11.618;2023-04-16T11:49:27;3.03;;;1.83;;
39924;SDS011;25592;49.986;11.618;2023-04-16T11:52:23;3.63;;;2.08;;
39924;SDS011;25592;49.986;11.618;2023-04-16T11:55:11;3.97;;;2.33;;
39924;SDS011;25592;49.986;11.618;2023-04-16T11:57:57;4.03;;;1.92;;
39924;SDS011;25592;49.986;11.618;2023-04-16T12:00:57;3.65;;;2.10;;
39924;SDS011;25592;49.986;11.618;2023-04-16T12:03:44;3.55;;;2.00;;
39924;SDS011;25592;49.986;11.618;2023-04-16T12:06:33;3.20;;;2.03;;
39924;SDS011;25592;49.986;11.618;2023-04-16T12:09:22;3.85;;;1.85;;
39924;SDS011;25592;49.986;11.618;2023-04-16T12:12:27;3.97;;;1.83;;
39924;SDS011;25592;49.986;11.618;2023-04-16T12:15:16;3.40;;;2.03;;
39924;SDS011;25592;49.986;11.618;2023-04-16T12:18:05;4.40;;;1.90;;
39924;SDS011;25592;49.986;11.618;2023-04-16T12:20:51;3.60;;;2.13;;
39924;SDS011;25592;49.986;11.618;2023-04-16T12:23:37;3.53;;;1.90;;
39924;SDS011;25592;49.986;11.618;2023-04-16T12:26:23;2.95;;;1.65;;
39924;SDS011;25592;49.986;11.618;2023-04-16T12:29:19;3.80;;;2.10;;
39924;SDS011;25592;49.986;11.618;2023-04-16T12:32:19;3.13;;;1.80;;
39924;SDS011;25592;49.986;11.618;2023-04-16T12:35:07;3.03;;;1.88;;
39924;SDS011;25592;49.986;11.618;2023-04-16T12:37:54;5.20;;;2.75;;
39924;SDS011;25592;49.986;11.618;2023-04-16T12:40:39;3.60;;;1.80;;
39924;SDS011;25592;49.986;11.618;2023-04-16T12:43:25;3.78;;;1.88;;
39924;SDS011;25592;49.986;11.618;2023-04-16T12:46:11;3.63;;;2.28;;
39924;SDS011;25592;49.986;11.618;2023-04-16T12:48:56;5.10;;;2.17;;
39924;SDS011;25592;49.986;11.618;2023-04-16T12:51:41;5.60;;;2.00;;
39924;SDS011;25592;49.986;11.618;2023-04-16T12:54:27;6.20;;;2.42;;
39924;SDS011;25592;49.986;11.618;2023-04-16T12:57:15;3.03;;;1.50;;
39924;SDS011;25592;49.986;11.618;2023-04-16T13:00:00;6.90;;;1.70;;
39924;SDS011;25592;49.986;11.618;2023-04-16T13:02:46;3.70;;;2.25;;
39924;SDS011;25592;49.986;11.618;2023-04-16T13:05:31;5.20;;;2.85;;
39924;SDS011;25592;49.986;11.618;2023-04-16T13:08:16;4.10;;;2.25;;
39924;SDS011;25592;49.986;11.618;2023-04-16T13:11:02;3.67;;;1.67;;
39924;SDS011;25592;49.986;11.618;2023-04-16T13:13:48;5.72;;;2.67;;
39924;SDS011;25592;49.986;11.618;2023-04-16T13:16:33;10.00;;;4.47;;
39924;SDS011;25592;49.986;11.618;2023-04-16T13:19:19;4.18;;;2.65;;
39924;SDS011;25592;49.986;11.618;2023-04-16T13:22:04;3.15;;;1.70;;
39924;SDS011;25592;49.986;11.618;2023-04-16T13:24:50;3.90;;;2.22;;
39924;SDS011;25592;49.986;11.618;2023-04-16T13:27:35;3.50;;;2.10;;
39924;SDS011;25592;49.986;11.618;2023-04-16T13:30:21;4.50;;;2.60;;
39924;SDS011;25592;49.986;11.618;2023-04-16T13:33:07;5.85;;;2.70;;
39924;SDS011;25592;49.986;11.618;2023-04-16T13:35:52;8.63;;;4.45;;
39924;SDS011;25592;49.986;11.618;2023-04-16T13:38:38;5.78;;;3.10;;
39924;SDS011;25592;49.986;11.618;2023-04-16T13:41:24;4.70;;;2.63;;
39924;SDS011;25592;49.986;11.618;2023-04-16T13:44:10;5.65;;;3.55;;
39924;SDS011;25592;49.986;11.618;2023-04-16T13:46:55;4.75;;;2.85;;
39924;SDS011;25592;49.986;11.618;2023-04-16T13:49:41;4.72;;;2.78;;
39924;SDS011;25592;49.986;11.618;2023-04-16T13:52:26;5.93;;;2.80;;
39924;SDS011;25592;49.986;11.618;2023-04-16T13:55:12;6.63;;;3.30;;
39924;SDS011;25592;49.986;11.618;2023-04-16T13:58:02;6.40;;;3.67;;
39924;SDS011;25592;49.986;11.618;2023-04-16T14:00:47;6.32;;;3.70;;
39924;SDS011;25592;49.986;11.618;2023-04-16T14:03:33;5.40;;;3.20;;
39924;SDS011;25592;49.986;11.618;2023-04-16T14:06:22;6.03;;;3.58;;
39924;SDS011;25592;49.986;11.618;2023-04-16T14:09:07;4.40;;;2.80;;
39924;SDS011;25592;49.986;11.618;2023-04-16T14:11:54;4.88;;;3.05;;
39924;SDS011;25592;49.986;11.618;2023-04-16T14:14:40;4.90;;;2.90;;
39924;SDS011;25592;49.986;11.618;2023-04-16T14:17:25;7.40;;;2.55;;
39924;SDS011;25592;49.986;11.618;2023-04-16T14:20:11;4.57;;;2.63;;
39924;SDS011;25592;49.986;11.618;2023-04-16T14:22:57;3.85;;;2.28;;
39924;SDS011;25592;49.986;11.618;2023-04-16T14:25:43;4.50;;;2.70;;
39924;SDS011;25592;49.986;11.618;2023-04-16T14:28:29;5.80;;;2.45;;
39924;SDS011;25592;49.986;11.618;2023-04-16T14:31:15;4.38;;;2.67;;
39924;SDS011;25592;49.986;11.618;2023-04-16T14:34:02;5.13;;;3.10;;
39924;SDS011;25592;49.986;11.618;2023-04-16T14:36:47;9.43;;;6.22;;
39924;SDS011;25592;49.986;11.618;2023-04-16T14:39:34;8.93;;;6.70;;
39924;SDS011;25592;49.986;11.618;2023-04-16T14:42:20;6.07;;;3.45;;
39924;SDS011;25592;49.986;11.618;2023-04-16T14:45:05;3.85;;;2.20;;
39924;SDS011;25592;49.986;11.618;2023-04-16T14:47:51;3.67;;;2.30;;
39924;SDS011;25592;49.986;11.618;2023-04-16T14:50:37;3.35;;;1.80;;
39924;SDS011;25592;49.986;11.618;2023-04-16T14:53:27;3.50;;;1.75;;
39924;SDS011;25592;49.986;11.618;2023-04-16T14:56:12;2.55;;;1.40;;
39924;SDS011;25592;49.986;11.618;2023-04-16T14:58:58;2.65;;;1.30;;
39924;SDS011;25592;49.986;11.618;2023-04-16T15:01:44;2.25;;;1.30;;
39924;SDS011;25592;49.986;11.618;2023-04-16T15:04:30;2.38;;;1.27;;
39924;SDS011;25592;49.986;11.618;2023-04-16T15:07:16;3.20;;;1.50;;
39924;SDS011;25592;49.986;11.618;2023-04-16T15:10:01;2.47;;;1.35;;
39924;SDS011;25592;49.986;11.618;2023-04-16T15:12:47;1.92;;;1.20;;
39924;SDS011;25592;49.986;11.618;2023-04-16T15:15:32;3.67;;;1.52;;
39924;SDS011;25592;49.986;11.618;2023-04-16T15:18:18;3.70;;;1.70;;
39924;SDS011;25592;49.986;11.618;2023-04-16T15:21:04;3.53;;;1.80;;
39924;SDS011;25592;49.986;11.618;2023-04-16T15:23:49;3.40;;;1.83;;
39924;SDS011;25592;49.986;11.618;2023-04-16T15:26:35;2.28;;;1.40;;
39924;SDS011;25592;49.986;11.618;2023-04-16T15:29:20;2.95;;;1.70;;
39924;SDS011;25592;49.986;11.618;2023-04-16T15:32:05;3.65;;;1.60;;
39924;SDS011;25592;49.986;11.618;2023-04-16T15:34:51;4.65;;;2.97;;
39924;SDS011;25592;49.986;11.618;2023-04-16T15:37:36;8.82;;;4.47;;
39924;SDS011;25592;49.986;11.618;2023-04-16T15:40:23;10.10;;;5.38;;
39924;SDS011;25592;49.986;11.618;2023-04-16T15:43:09;4.63;;;3.05;;
39924;SDS011;25592;49.986;11.618;2023-04-16T15:45:54;6.75;;;3.30;;
39924;SDS011;25592;49.986;11.618;2023-04-16T15:48:40;5.35;;;2.72;;
39924;SDS011;25592;49.986;11.618;2023-04-16T15:51:25;4.50;;;2.72;;
39924;SDS011;25592;49.986;11.618;2023-04-16T15:54:13;4.85;;;2.83;;
39924;SDS011;25592;49.986;11.618;2023-04-16T15:56:58;3.80;;;2.55;;
39924;SDS011;25592;49.986;11.618;2023-04-16T15:59:43;4.13;;;2.72;;
39924;SDS011;25592;49.986;11.618;2023-04-16T16:02:49;4.13;;;2.53;;
39924;SDS011;25592;49.986;11.618;2023-04-16T16:05:35;4.68;;;2.42;;
39924;SDS011;25592;49.986;11.618;2023-04-16T16:08:20;4.43;;;2.28;;
39924;SDS011;25592;49.986;11.618;2023-04-16T16:11:06;3.33;;;1.83;;
39924;SDS011;25592;49.986;11.618;2023-04-16T16:13:51;3.65;;;1.98;;
39924;SDS011;25592;49.986;11.618;2023-04-16T16:16:37;4.55;;;2.47;;
39924;SDS011;25592;49.986;11.618;2023-04-16T16:19:23;5.18;;;2.90;;
39924;SDS011;25592;49.986;11.618;2023-04-16T16:22:08;6.20;;;2.90;;
39924;SDS011;25592;49.986;11.618;2023-04-16T16:24:54;7.38;;;3.50;;
39924;SDS011;25592;49.986;11.618;2023-04-16T16:27:39;5.20;;;2.67;;
39924;SDS011;25592;49.986;11.618;2023-04-16T16:30:25;4.57;;;2.60;;
39924;SDS011;25592;49.986;11.618;2023-04-16T16:33:11;7.25;;;3.10;;
39924;SDS011;25592;49.986;11.618;2023-04-16T16:35:57;9.52;;;4.03;;